Yeager Airport Charleston US
ICAO: KCRW
IATA: CRW
Category: Large
Scheduled Services: Yes

Elevation: 981 ft
TransAlt. 18000 ft.

Airport Communications:
CHARLESTON APP/DEP:128.5
ATIS:127.6
CLNC DEL:118.55
GND:121.8
ANG COMD POST/OPS:30.23
ELKINS RDO:122.2
CHARLESTON TWR:125.7
UNICOM:122.95

KCRW Zoom In..

If you have problems with the map follow the link
https://www.worldairports.se/pages/airport.php?
ICAO=KCRW

Runways:

(A) RW 05 length 6802 ft width 150 ft
ILS 110.30 / hdg 53

(B) RW 23 length 6802 ft width 150 ft
ILS 110.30 / hdg 233

Location; KCRW
Day. 16 / Time. 02.54 Zulu
* Altimeter: 29.93
* Temperature: 02° c. 35.6°f.
* Wind from: 270° Speed 06 kn.
Dewpoint: 01° c.
Visibility: 2 Statute Miles.
Clouds: Overcast 700 ft.
Conditions: Mist.

KCRW 160254Z 27006KT 2SM -SNRA BR OVC007 02/01 A2993 RMK AO2 PK WND 27027/0227 SNB50 SLP140 P0008 60010 T00170011 53013 $


Wind From 270°
Speed 06 kn.

 
 
jpsmedia.com for Web Design worldairports.se 2018   terms of use